sensor_id;sensor_type;location;lat;lon;timestamp;P1;durP1;ratioP1;P2;durP2;ratioP2
51020;SDS011;38907;45.562;8.856;2023-05-16T00:07:32;15.52;;;11.68;;
51020;SDS011;38907;45.562;8.856;2023-05-16T00:12:36;12.33;;;11.03;;
51020;SDS011;38907;45.562;8.856;2023-05-16T00:17:38;16.08;;;12.10;;
51020;SDS011;38907;45.562;8.856;2023-05-16T00:22:42;13.85;;;11.82;;
51020;SDS011;38907;45.562;8.856;2023-05-16T00:27:46;12.87;;;11.10;;
51020;SDS011;38907;45.562;8.856;2023-05-16T00:37:50;15.23;;;10.80;;
51020;SDS011;38907;45.562;8.856;2023-05-16T00:42:53;14.13;;;10.32;;
51020;SDS011;38907;45.562;8.856;2023-05-16T00:47:55;13.50;;;10.43;;
51020;SDS011;38907;45.562;8.856;2023-05-16T00:52:57;14.65;;;11.95;;
51020;SDS011;38907;45.562;8.856;2023-05-16T00:58:00;14.32;;;10.65;;
51020;SDS011;38907;45.562;8.856;2023-05-16T01:08:05;15.70;;;10.90;;
51020;SDS011;38907;45.562;8.856;2023-05-16T01:13:10;14.55;;;11.50;;
51020;SDS011;38907;45.562;8.856;2023-05-16T01:18:21;15.07;;;11.20;;
51020;SDS011;38907;45.562;8.856;2023-05-16T01:23:33;15.88;;;10.70;;
51020;SDS011;38907;45.562;8.856;2023-05-16T01:28:44;18.85;;;10.77;;
51020;SDS011;38907;45.562;8.856;2023-05-16T01:33:47;15.32;;;11.05;;
51020;SDS011;38907;45.562;8.856;2023-05-16T01:38:53;11.90;;;10.03;;
51020;SDS011;38907;45.562;8.856;2023-05-16T01:44:04;11.50;;;9.60;;
51020;SDS011;38907;45.562;8.856;2023-05-16T01:49:14;13.70;;;10.15;;
51020;SDS011;38907;45.562;8.856;2023-05-16T01:54:20;12.60;;;10.05;;
51020;SDS011;38907;45.562;8.856;2023-05-16T01:59:27;12.65;;;10.20;;
51020;SDS011;38907;45.562;8.856;2023-05-16T02:04:29;15.18;;;10.25;;
51020;SDS011;38907;45.562;8.856;2023-05-16T02:09:31;12.30;;;10.48;;
51020;SDS011;38907;45.562;8.856;2023-05-16T02:14:35;12.60;;;10.85;;
51020;SDS011;38907;45.562;8.856;2023-05-16T02:19:37;13.85;;;10.57;;
51020;SDS011;38907;45.562;8.856;2023-05-16T02:24:38;13.10;;;10.23;;
51020;SDS011;38907;45.562;8.856;2023-05-16T02:29:42;13.10;;;10.80;;
51020;SDS011;38907;45.562;8.856;2023-05-16T02:34:43;12.93;;;11.25;;
51020;SDS011;38907;45.562;8.856;2023-05-16T02:39:45;12.95;;;10.65;;
51020;SDS011;38907;45.562;8.856;2023-05-16T02:44:48;16.20;;;10.13;;
51020;SDS011;38907;45.562;8.856;2023-05-16T02:49:50;12.00;;;10.55;;
51020;SDS011;38907;45.562;8.856;2023-05-16T02:54:52;12.65;;;10.27;;
51020;SDS011;38907;45.562;8.856;2023-05-16T02:59:56;12.13;;;10.02;;
51020;SDS011;38907;45.562;8.856;2023-05-16T03:04:58;13.18;;;9.63;;
51020;SDS011;38907;45.562;8.856;2023-05-16T03:10:00;15.20;;;10.30;;
51020;SDS011;38907;45.562;8.856;2023-05-16T03:15:03;10.82;;;9.73;;
51020;SDS011;38907;45.562;8.856;2023-05-16T03:20:08;13.48;;;9.38;;
51020;SDS011;38907;45.562;8.856;2023-05-16T03:30:14;11.10;;;6.97;;
51020;SDS011;38907;45.562;8.856;2023-05-16T03:40:18;8.13;;;5.28;;
51020;SDS011;38907;45.562;8.856;2023-05-16T03:45:22;6.83;;;5.73;;
51020;SDS011;38907;45.562;8.856;2023-05-16T03:50:23;5.78;;;5.03;;
51020;SDS011;38907;45.562;8.856;2023-05-16T03:55:25;7.45;;;3.90;;
51020;SDS011;38907;45.562;8.856;2023-05-16T04:00:29;8.85;;;4.32;;
51020;SDS011;38907;45.562;8.856;2023-05-16T04:10:33;5.10;;;4.10;;
51020;SDS011;38907;45.562;8.856;2023-05-16T04:15:36;5.82;;;3.88;;
51020;SDS011;38907;45.562;8.856;2023-05-16T04:20:38;6.80;;;4.35;;
51020;SDS011;38907;45.562;8.856;2023-05-16T04:25:41;4.07;;;3.50;;
51020;SDS011;38907;45.562;8.856;2023-05-16T04:30:45;4.95;;;3.70;;
51020;SDS011;38907;45.562;8.856;2023-05-16T04:35:47;3.92;;;3.17;;
51020;SDS011;38907;45.562;8.856;2023-05-16T04:40:49;8.30;;;3.60;;
51020;SDS011;38907;45.562;8.856;2023-05-16T04:45:53;6.88;;;3.88;;
51020;SDS011;38907;45.562;8.856;2023-05-16T04:50:57;4.43;;;3.40;;
51020;SDS011;38907;45.562;8.856;2023-05-16T04:55:59;3.88;;;2.95;;
51020;SDS011;38907;45.562;8.856;2023-05-16T05:01:03;5.03;;;3.13;;
51020;SDS011;38907;45.562;8.856;2023-05-16T05:06:05;5.43;;;2.65;;
51020;SDS011;38907;45.562;8.856;2023-05-16T05:11:07;5.88;;;2.72;;
51020;SDS011;38907;45.562;8.856;2023-05-16T05:16:10;4.47;;;2.35;;
51020;SDS011;38907;45.562;8.856;2023-05-16T05:21:12;4.65;;;2.65;;
51020;SDS011;38907;45.562;8.856;2023-05-16T05:26:14;3.28;;;2.70;;
51020;SDS011;38907;45.562;8.856;2023-05-16T05:31:18;3.42;;;2.72;;
51020;SDS011;38907;45.562;8.856;2023-05-16T05:41:21;4.05;;;3.13;;
51020;SDS011;38907;45.562;8.856;2023-05-16T05:46:24;6.72;;;3.20;;
51020;SDS011;38907;45.562;8.856;2023-05-16T05:56:28;11.40;;;2.92;;
51020;SDS011;38907;45.562;8.856;2023-05-16T06:01:31;3.97;;;2.85;;
51020;SDS011;38907;45.562;8.856;2023-05-16T06:11:35;10.40;;;3.58;;
51020;SDS011;38907;45.562;8.856;2023-05-16T06:16:38;6.80;;;4.00;;
51020;SDS011;38907;45.562;8.856;2023-05-16T06:26:42;6.47;;;3.63;;
51020;SDS011;38907;45.562;8.856;2023-05-16T06:31:46;5.57;;;3.85;;
51020;SDS011;38907;45.562;8.856;2023-05-16T06:36:48;6.70;;;4.40;;
51020;SDS011;38907;45.562;8.856;2023-05-16T06:41:50;6.15;;;4.68;;
51020;SDS011;38907;45.562;8.856;2023-05-16T06:46:53;9.73;;;4.65;;
51020;SDS011;38907;45.562;8.856;2023-05-16T06:56:57;8.07;;;5.32;;
51020;SDS011;38907;45.562;8.856;2023-05-16T07:02:00;8.60;;;6.00;;
51020;SDS011;38907;45.562;8.856;2023-05-16T07:07:02;8.77;;;5.57;;
51020;SDS011;38907;45.562;8.856;2023-05-16T07:12:06;8.95;;;5.88;;
51020;SDS011;38907;45.562;8.856;2023-05-16T07:17:10;15.00;;;6.50;;
51020;SDS011;38907;45.562;8.856;2023-05-16T07:22:12;8.48;;;6.25;;
51020;SDS011;38907;45.562;8.856;2023-05-16T07:27:14;18.23;;;6.55;;
51020;SDS011;38907;45.562;8.856;2023-05-16T07:32:17;9.77;;;8.15;;
51020;SDS011;38907;45.562;8.856;2023-05-16T07:37:19;15.25;;;9.35;;
51020;SDS011;38907;45.562;8.856;2023-05-16T07:42:22;20.27;;;11.47;;
51020;SDS011;38907;45.562;8.856;2023-05-16T07:47:25;14.00;;;11.30;;
51020;SDS011;38907;45.562;8.856;2023-05-16T07:52:27;16.52;;;11.82;;
51020;SDS011;38907;45.562;8.856;2023-05-16T07:57:29;21.40;;;12.32;;
51020;SDS011;38907;45.562;8.856;2023-05-16T08:02:32;20.52;;;15.82;;
51020;SDS011;38907;45.562;8.856;2023-05-16T08:07:34;23.48;;;17.85;;
51020;SDS011;38907;45.562;8.856;2023-05-16T08:12:36;23.20;;;18.70;;
51020;SDS011;38907;45.562;8.856;2023-05-16T08:17:40;21.90;;;17.60;;
51020;SDS011;38907;45.562;8.856;2023-05-16T08:22:42;17.42;;;13.02;;
51020;SDS011;38907;45.562;8.856;2023-05-16T08:27:44;14.88;;;12.85;;
51020;SDS011;38907;45.562;8.856;2023-05-16T08:32:47;12.40;;;10.80;;
51020;SDS011;38907;45.562;8.856;2023-05-16T08:37:49;11.23;;;9.80;;
51020;SDS011;38907;45.562;8.856;2023-05-16T08:42:51;17.92;;;11.63;;
51020;SDS011;38907;45.562;8.856;2023-05-16T08:47:54;18.03;;;12.17;;
51020;SDS011;38907;45.562;8.856;2023-05-16T08:52:56;12.65;;;11.32;;
51020;SDS011;38907;45.562;8.856;2023-05-16T08:58:00;16.25;;;13.73;;
51020;SDS011;38907;45.562;8.856;2023-05-16T09:03:04;17.23;;;13.73;;
51020;SDS011;38907;45.562;8.856;2023-05-16T09:08:06;18.42;;;16.23;;
51020;SDS011;38907;45.562;8.856;2023-05-16T09:13:08;21.63;;;16.85;;
51020;SDS011;38907;45.562;8.856;2023-05-16T09:18:11;18.85;;;15.07;;
51020;SDS011;38907;45.562;8.856;2023-05-16T09:23:14;20.88;;;13.93;;
51020;SDS011;38907;45.562;8.856;2023-05-16T09:28:16;14.03;;;10.57;;
51020;SDS011;38907;45.562;8.856;2023-05-16T09:33:22;17.88;;;9.32;;
51020;SDS011;38907;45.562;8.856;2023-05-16T09:38:24;13.38;;;8.55;;
51020;SDS011;38907;45.562;8.856;2023-05-16T09:48:30;8.57;;;7.00;;
51020;SDS011;38907;45.562;8.856;2023-05-16T09:53:32;9.13;;;6.85;;
51020;SDS011;38907;45.562;8.856;2023-05-16T09:58:36;6.90;;;5.00;;
51020;SDS011;38907;45.562;8.856;2023-05-16T10:03:40;8.13;;;3.95;;
51020;SDS011;38907;45.562;8.856;2023-05-16T10:08:43;3.42;;;3.13;;
51020;SDS011;38907;45.562;8.856;2023-05-16T10:13:46;5.68;;;3.63;;
51020;SDS011;38907;45.562;8.856;2023-05-16T10:18:53;3.63;;;2.92;;
51020;SDS011;38907;45.562;8.856;2023-05-16T10:23:56;7.10;;;2.90;;
51020;SDS011;38907;45.562;8.856;2023-05-16T10:29:02;4.53;;;2.50;;
51020;SDS011;38907;45.562;8.856;2023-05-16T10:34:07;9.18;;;2.55;;
51020;SDS011;38907;45.562;8.856;2023-05-16T10:39:10;5.88;;;2.42;;
51020;SDS011;38907;45.562;8.856;2023-05-16T10:44:13;5.65;;;2.38;;
51020;SDS011;38907;45.562;8.856;2023-05-16T10:49:20;6.43;;;2.30;;
51020;SDS011;38907;45.562;8.856;2023-05-16T10:54:24;5.63;;;2.67;;
51020;SDS011;38907;45.562;8.856;2023-05-16T10:59:42;2.65;;;2.33;;
51020;SDS011;38907;45.562;8.856;2023-05-16T11:04:46;3.50;;;3.00;;
51020;SDS011;38907;45.562;8.856;2023-05-16T11:15:20;11.13;;;5.65;;
51020;SDS011;38907;45.562;8.856;2023-05-16T11:20:26;6.30;;;4.15;;
51020;SDS011;38907;45.562;8.856;2023-05-16T11:25:34;8.40;;;3.83;;
51020;SDS011;38907;45.562;8.856;2023-05-16T11:30:41;6.38;;;3.42;;
51020;SDS011;38907;45.562;8.856;2023-05-16T11:35:44;5.85;;;4.60;;
51020;SDS011;38907;45.562;8.856;2023-05-16T11:41:02;6.88;;;4.63;;
51020;SDS011;38907;45.562;8.856;2023-05-16T11:46:05;5.05;;;4.38;;
51020;SDS011;38907;45.562;8.856;2023-05-16T11:51:09;9.68;;;5.10;;
51020;SDS011;38907;45.562;8.856;2023-05-16T11:56:11;7.47;;;4.20;;
51020;SDS011;38907;45.562;8.856;2023-05-16T12:01:13;3.88;;;3.47;;
51020;SDS011;38907;45.562;8.856;2023-05-16T12:06:16;5.40;;;3.90;;
51020;SDS011;38907;45.562;8.856;2023-05-16T12:11:18;4.80;;;3.72;;
51020;SDS011;38907;45.562;8.856;2023-05-16T12:16:20;9.25;;;4.75;;
51020;SDS011;38907;45.562;8.856;2023-05-16T12:21:24;8.55;;;4.65;;
51020;SDS011;38907;45.562;8.856;2023-05-16T12:26:27;7.65;;;4.88;;
51020;SDS011;38907;45.562;8.856;2023-05-16T12:31:30;6.43;;;4.82;;
51020;SDS011;38907;45.562;8.856;2023-05-16T12:36:37;7.78;;;5.20;;
51020;SDS011;38907;45.562;8.856;2023-05-16T12:41:39;6.28;;;5.57;;
51020;SDS011;38907;45.562;8.856;2023-05-16T12:46:42;10.35;;;5.68;;
51020;SDS011;38907;45.562;8.856;2023-05-16T12:51:48;6.90;;;5.53;;
51020;SDS011;38907;45.562;8.856;2023-05-16T12:56:51;8.75;;;6.18;;
51020;SDS011;38907;45.562;8.856;2023-05-16T13:01:53;5.90;;;5.13;;
51020;SDS011;38907;45.562;8.856;2023-05-16T13:06:56;7.93;;;5.13;;
51020;SDS011;38907;45.562;8.856;2023-05-16T13:11:58;7.38;;;4.65;;
51020;SDS011;38907;45.562;8.856;2023-05-16T13:17:00;7.88;;;5.45;;
51020;SDS011;38907;45.562;8.856;2023-05-16T13:22:04;8.85;;;5.55;;
51020;SDS011;38907;45.562;8.856;2023-05-16T13:27:06;8.85;;;5.00;;
51020;SDS011;38907;45.562;8.856;2023-05-16T13:32:08;6.07;;;5.47;;
51020;SDS011;38907;45.562;8.856;2023-05-16T13:37:11;11.27;;;6.07;;
51020;SDS011;38907;45.562;8.856;2023-05-16T13:42:13;10.93;;;5.97;;
51020;SDS011;38907;45.562;8.856;2023-05-16T13:47:15;7.25;;;5.05;;
51020;SDS011;38907;45.562;8.856;2023-05-16T13:52:18;12.57;;;5.53;;
51020;SDS011;38907;45.562;8.856;2023-05-16T13:57:20;10.90;;;4.93;;
51020;SDS011;38907;45.562;8.856;2023-05-16T14:02:22;9.13;;;5.10;;
51020;SDS011;38907;45.562;8.856;2023-05-16T14:07:26;7.53;;;5.10;;
51020;SDS011;38907;45.562;8.856;2023-05-16T14:12:28;6.20;;;4.60;;
51020;SDS011;38907;45.562;8.856;2023-05-16T14:17:30;5.90;;;4.85;;
51020;SDS011;38907;45.562;8.856;2023-05-16T14:22:33;5.65;;;4.47;;
51020;SDS011;38907;45.562;8.856;2023-05-16T14:27:35;4.65;;;3.80;;
51020;SDS011;38907;45.562;8.856;2023-05-16T14:32:37;4.68;;;3.67;;
51020;SDS011;38907;45.562;8.856;2023-05-16T14:37:40;4.75;;;3.58;;
51020;SDS011;38907;45.562;8.856;2023-05-16T14:42:42;4.30;;;3.63;;
51020;SDS011;38907;45.562;8.856;2023-05-16T14:47:44;4.70;;;3.50;;
51020;SDS011;38907;45.562;8.856;2023-05-16T14:52:48;5.78;;;3.47;;
51020;SDS011;38907;45.562;8.856;2023-05-16T14:57:51;7.55;;;4.20;;
51020;SDS011;38907;45.562;8.856;2023-05-16T15:03:12;4.22;;;3.83;;
51020;SDS011;38907;45.562;8.856;2023-05-16T15:08:16;7.30;;;4.15;;
51020;SDS011;38907;45.562;8.856;2023-05-16T15:13:19;4.80;;;3.75;;
51020;SDS011;38907;45.562;8.856;2023-05-16T15:18:21;4.57;;;4.10;;
51020;SDS011;38907;45.562;8.856;2023-05-16T15:23:27;4.25;;;3.85;;
51020;SDS011;38907;45.562;8.856;2023-05-16T15:28:32;4.60;;;3.83;;
51020;SDS011;38907;45.562;8.856;2023-05-16T15:33:37;6.68;;;4.60;;
51020;SDS011;38907;45.562;8.856;2023-05-16T15:38:43;5.80;;;4.87;;
51020;SDS011;38907;45.562;8.856;2023-05-16T15:43:49;5.18;;;4.68;;
51020;SDS011;38907;45.562;8.856;2023-05-16T15:48:53;6.85;;;4.30;;
51020;SDS011;38907;45.562;8.856;2023-05-16T15:59:43;7.22;;;4.50;;
51020;SDS011;38907;45.562;8.856;2023-05-16T16:04:45;6.00;;;4.55;;
51020;SDS011;38907;45.562;8.856;2023-05-16T16:09:48;6.45;;;4.82;;
51020;SDS011;38907;45.562;8.856;2023-05-16T16:14:51;8.82;;;4.93;;
51020;SDS011;38907;45.562;8.856;2023-05-16T16:19:53;5.18;;;4.45;;
51020;SDS011;38907;45.562;8.856;2023-05-16T16:24:55;6.43;;;4.73;;
51020;SDS011;38907;45.562;8.856;2023-05-16T16:29:58;6.78;;;4.00;;
51020;SDS011;38907;45.562;8.856;2023-05-16T16:35:00;5.07;;;3.88;;
51020;SDS011;38907;45.562;8.856;2023-05-16T16:40:06;5.18;;;4.25;;
51020;SDS011;38907;45.562;8.856;2023-05-16T16:45:14;7.88;;;4.10;;
51020;SDS011;38907;45.562;8.856;2023-05-16T16:50:16;7.68;;;4.28;;
51020;SDS011;38907;45.562;8.856;2023-05-16T16:55:18;8.10;;;4.30;;
51020;SDS011;38907;45.562;8.856;2023-05-16T17:00:21;8.03;;;3.83;;
51020;SDS011;38907;45.562;8.856;2023-05-16T17:05:23;8.98;;;4.45;;
51020;SDS011;38907;45.562;8.856;2023-05-16T17:10:25;5.35;;;3.95;;
51020;SDS011;38907;45.562;8.856;2023-05-16T17:15:28;6.03;;;4.35;;
51020;SDS011;38907;45.562;8.856;2023-05-16T17:20:30;6.30;;;4.43;;
51020;SDS011;38907;45.562;8.856;2023-05-16T17:25:32;6.07;;;4.77;;
51020;SDS011;38907;45.562;8.856;2023-05-16T17:30:36;4.95;;;4.28;;
51020;SDS011;38907;45.562;8.856;2023-05-16T17:35:38;6.50;;;4.22;;
51020;SDS011;38907;45.562;8.856;2023-05-16T17:40:40;4.73;;;4.17;;
51020;SDS011;38907;45.562;8.856;2023-05-16T17:45:44;5.80;;;4.57;;
51020;SDS011;38907;45.562;8.856;2023-05-16T17:50:49;4.97;;;4.18;;
51020;SDS011;38907;45.562;8.856;2023-05-16T17:55:53;4.72;;;4.18;;
51020;SDS011;38907;45.562;8.856;2023-05-16T18:00:57;5.05;;;3.80;;
51020;SDS011;38907;45.562;8.856;2023-05-16T18:05:59;5.30;;;3.83;;
51020;SDS011;38907;45.562;8.856;2023-05-16T18:11:00;4.82;;;3.92;;
51020;SDS011;38907;45.562;8.856;2023-05-16T18:16:04;3.97;;;3.40;;
51020;SDS011;38907;45.562;8.856;2023-05-16T18:21:07;5.43;;;3.53;;
51020;SDS011;38907;45.562;8.856;2023-05-16T18:26:09;8.40;;;3.90;;
51020;SDS011;38907;45.562;8.856;2023-05-16T18:31:12;5.85;;;3.95;;
51020;SDS011;38907;45.562;8.856;2023-05-16T18:36:14;7.40;;;4.35;;
51020;SDS011;38907;45.562;8.856;2023-05-16T18:41:16;7.97;;;4.57;;
51020;SDS011;38907;45.562;8.856;2023-05-16T18:46:20;7.03;;;4.65;;
51020;SDS011;38907;45.562;8.856;2023-05-16T18:51:22;6.00;;;4.05;;
51020;SDS011;38907;45.562;8.856;2023-05-16T18:56:24;8.07;;;4.80;;
51020;SDS011;38907;45.562;8.856;2023-05-16T19:01:27;5.63;;;4.72;;
51020;SDS011;38907;45.562;8.856;2023-05-16T19:06:29;5.53;;;4.47;;
51020;SDS011;38907;45.562;8.856;2023-05-16T19:11:31;6.03;;;4.50;;
51020;SDS011;38907;45.562;8.856;2023-05-16T19:16:34;7.63;;;4.05;;
51020;SDS011;38907;45.562;8.856;2023-05-16T19:21:36;4.75;;;4.20;;
51020;SDS011;38907;45.562;8.856;2023-05-16T19:26:38;11.20;;;6.20;;
51020;SDS011;38907;45.562;8.856;2023-05-16T19:31:42;7.57;;;5.88;;
51020;SDS011;38907;45.562;8.856;2023-05-16T19:36:43;6.80;;;5.45;;
51020;SDS011;38907;45.562;8.856;2023-05-16T19:41:46;8.40;;;5.60;;
51020;SDS011;38907;45.562;8.856;2023-05-16T19:46:49;5.68;;;4.75;;
51020;SDS011;38907;45.562;8.856;2023-05-16T19:51:51;6.45;;;5.40;;
51020;SDS011;38907;45.562;8.856;2023-05-16T19:56:53;7.22;;;5.65;;
51020;SDS011;38907;45.562;8.856;2023-05-16T20:01:57;5.90;;;5.00;;
51020;SDS011;38907;45.562;8.856;2023-05-16T20:06:59;5.95;;;4.65;;
51020;SDS011;38907;45.562;8.856;2023-05-16T20:12:01;7.18;;;3.72;;
51020;SDS011;38907;45.562;8.856;2023-05-16T20:17:04;8.23;;;3.60;;
51020;SDS011;38907;45.562;8.856;2023-05-16T20:22:06;3.58;;;3.25;;
51020;SDS011;38907;45.562;8.856;2023-05-16T20:27:08;6.35;;;3.40;;
51020;SDS011;38907;45.562;8.856;2023-05-16T20:32:11;6.15;;;3.70;;
51020;SDS011;38907;45.562;8.856;2023-05-16T20:37:13;6.45;;;3.30;;
51020;SDS011;38907;45.562;8.856;2023-05-16T20:42:15;5.82;;;3.22;;
51020;SDS011;38907;45.562;8.856;2023-05-16T20:47:18;4.05;;;3.40;;
51020;SDS011;38907;45.562;8.856;2023-05-16T20:52:21;5.20;;;4.20;;
51020;SDS011;38907;45.562;8.856;2023-05-16T20:57:23;4.97;;;3.45;;
51020;SDS011;38907;45.562;8.856;2023-05-16T21:02:26;4.05;;;3.20;;
51020;SDS011;38907;45.562;8.856;2023-05-16T21:07:28;7.63;;;4.25;;
51020;SDS011;38907;45.562;8.856;2023-05-16T21:12:30;4.97;;;4.07;;
51020;SDS011;38907;45.562;8.856;2023-05-16T21:17:33;5.25;;;3.67;;
51020;SDS011;38907;45.562;8.856;2023-05-16T21:22:35;8.52;;;4.00;;
51020;SDS011;38907;45.562;8.856;2023-05-16T21:27:37;5.03;;;3.60;;
51020;SDS011;38907;45.562;8.856;2023-05-16T21:32:40;3.58;;;3.25;;
51020;SDS011;38907;45.562;8.856;2023-05-16T21:37:42;6.53;;;3.40;;
51020;SDS011;38907;45.562;8.856;2023-05-16T21:42:44;6.50;;;4.00;;
51020;SDS011;38907;45.562;8.856;2023-05-16T21:47:47;3.70;;;3.38;;
51020;SDS011;38907;45.562;8.856;2023-05-16T21:52:49;4.00;;;3.60;;
51020;SDS011;38907;45.562;8.856;2023-05-16T21:57:51;5.03;;;3.60;;
51020;SDS011;38907;45.562;8.856;2023-05-16T22:02:54;6.22;;;3.97;;
51020;SDS011;38907;45.562;8.856;2023-05-16T22:12:58;9.05;;;7.72;;
51020;SDS011;38907;45.562;8.856;2023-05-16T22:18:01;7.35;;;6.28;;
51020;SDS011;38907;45.562;8.856;2023-05-16T22:23:03;7.15;;;5.40;;
51020;SDS011;38907;45.562;8.856;2023-05-16T22:28:05;6.68;;;5.85;;
51020;SDS011;38907;45.562;8.856;2023-05-16T22:33:09;9.63;;;6.00;;
51020;SDS011;38907;45.562;8.856;2023-05-16T22:38:10;7.60;;;6.05;;
51020;SDS011;38907;45.562;8.856;2023-05-16T22:43:12;8.77;;;6.20;;
51020;SDS011;38907;45.562;8.856;2023-05-16T22:48:16;8.32;;;6.00;;
51020;SDS011;38907;45.562;8.856;2023-05-16T22:53:18;8.95;;;6.82;;
51020;SDS011;38907;45.562;8.856;2023-05-16T22:58:19;9.55;;;6.65;;
51020;SDS011;38907;45.562;8.856;2023-05-16T23:03:23;10.43;;;6.75;;
51020;SDS011;38907;45.562;8.856;2023-05-16T23:08:26;8.38;;;6.40;;
51020;SDS011;38907;45.562;8.856;2023-05-16T23:13:28;7.38;;;5.88;;
51020;SDS011;38907;45.562;8.856;2023-05-16T23:18:31;7.70;;;6.20;;
51020;SDS011;38907;45.562;8.856;2023-05-16T23:28:35;10.55;;;6.15;;
51020;SDS011;38907;45.562;8.856;2023-05-16T23:33:38;10.68;;;6.80;;
51020;SDS011;38907;45.562;8.856;2023-05-16T23:38:40;7.50;;;6.10;;
51020;SDS011;38907;45.562;8.856;2023-05-16T23:43:42;8.63;;;6.78;;
51020;SDS011;38907;45.562;8.856;2023-05-16T23:48:45;8.73;;;5.85;;
51020;SDS011;38907;45.562;8.856;2023-05-16T23:58:48;7.53;;;6.22;;
